Annapolis, Missouri
Current Conditions -  °F | °C
As of 12:15 PM on Tuesday 21 Oct 2014 (Local Time) from KFAM Reporting Station
Clear Clear  
Wind Chill: 66°   Ceiling: Unl
Heat Index: 66°   Visibility: 10mi
Dew Point: 45°   Wind: 10mph
Humidity: 46%   Direction: 350°N
Pressure: 30.14"   Gusts: NA
Location:  37.36°N, 90.7°W
Report Text: KFAM 211715Z AUTO 35009KT 10SM CLR 19/07 A3014 RMK AO1
Loading
Personal Weather Stations






























Interactive Weather Map New forecast layout! Learn more

10-Day Weather Forecast

Advertisements
Track Severe Weather on mobile